sensor_id;sensor_type;location;lat;lon;timestamp;P1;P2;P0
45990;PMS5003;31721;41.740;-88.000;2023-08-06T00:01:29;20;20;
45990;PMS5003;31721;41.740;-88.000;2023-08-06T00:03:56;15;14;
45990;PMS5003;31721;41.740;-88.000;2023-08-06T00:06:24;13;11;
45990;PMS5003;31721;41.740;-88.000;2023-08-06T00:08:52;22;20;
45990;PMS5003;31721;41.740;-88.000;2023-08-06T00:11:19;15;13;
45990;PMS5003;31721;41.740;-88.000;2023-08-06T00:13:47;13;12;
45990;PMS5003;31721;41.740;-88.000;2023-08-06T00:16:14;19;16;
45990;PMS5003;31721;41.740;-88.000;2023-08-06T00:18:42;17;16;
45990;PMS5003;31721;41.740;-88.000;2023-08-06T00:21:11;13;10;
45990;PMS5003;31721;41.740;-88.000;2023-08-06T00:23:38;18;15;
45990;PMS5003;31721;41.740;-88.000;2023-08-06T00:26:06;15;12;
45990;PMS5003;31721;41.740;-88.000;2023-08-06T00:28:34;14;12;
45990;PMS5003;31721;41.740;-88.000;2023-08-06T00:31:02;14;12;
45990;PMS5003;31721;41.740;-88.000;2023-08-06T00:33:30;16;14;
45990;PMS5003;31721;41.740;-88.000;2023-08-06T00:35:58;11;11;
45990;PMS5003;31721;41.740;-88.000;2023-08-06T00:38:26;21;18;
45990;PMS5003;31721;41.740;-88.000;2023-08-06T00:40:54;12;9;
45990;PMS5003;31721;41.740;-88.000;2023-08-06T00:43:21;14;12;
45990;PMS5003;31721;41.740;-88.000;2023-08-06T00:45:50;17;14;
45990;PMS5003;31721;41.740;-88.000;2023-08-06T00:48:18;11;11;
45990;PMS5003;31721;41.740;-88.000;2023-08-06T00:50:46;18;15;
45990;PMS5003;31721;41.740;-88.000;2023-08-06T00:53:14;17;13;
45990;PMS5003;31721;41.740;-88.000;2023-08-06T00:55:42;10;9;
45990;PMS5003;31721;41.740;-88.000;2023-08-06T00:58:12;11;11;
45990;PMS5003;31721;41.740;-88.000;2023-08-06T01:00:40;17;15;
45990;PMS5003;31721;41.740;-88.000;2023-08-06T01:03:08;18;16;
45990;PMS5003;31721;41.740;-88.000;2023-08-06T01:05:36;16;16;
45990;PMS5003;31721;41.740;-88.000;2023-08-06T01:08:07;20;17;
45990;PMS5003;31721;41.740;-88.000;2023-08-06T01:10:48;17;17;
45990;PMS5003;31721;41.740;-88.000;2023-08-06T01:13:28;13;13;
45990;PMS5003;31721;41.740;-88.000;2023-08-06T01:16:00;18;17;
45990;PMS5003;31721;41.740;-88.000;2023-08-06T01:18:30;13;13;
45990;PMS5003;31721;41.740;-88.000;2023-08-06T01:20:58;16;16;
45990;PMS5003;31721;41.740;-88.000;2023-08-06T01:23:26;18;16;
45990;PMS5003;31721;41.740;-88.000;2023-08-06T01:25:56;20;19;
45990;PMS5003;31721;41.740;-88.000;2023-08-06T01:28:39;16;16;
45990;PMS5003;31721;41.740;-88.000;2023-08-06T01:31:15;22;17;
45990;PMS5003;31721;41.740;-88.000;2023-08-06T01:33:49;18;17;
45990;PMS5003;31721;41.740;-88.000;2023-08-06T01:36:19;21;20;
45990;PMS5003;31721;41.740;-88.000;2023-08-06T01:38:48;21;18;
45990;PMS5003;31721;41.740;-88.000;2023-08-06T01:41:18;18;18;
45990;PMS5003;31721;41.740;-88.000;2023-08-06T01:43:46;16;11;
45990;PMS5003;31721;41.740;-88.000;2023-08-06T01:46:15;11;11;
45990;PMS5003;31721;41.740;-88.000;2023-08-06T01:48:43;14;11;
45990;PMS5003;31721;41.740;-88.000;2023-08-06T01:51:11;11;11;
45990;PMS5003;31721;41.740;-88.000;2023-08-06T01:53:38;20;16;
45990;PMS5003;31721;41.740;-88.000;2023-08-06T01:56:06;19;15;
45990;PMS5003;31721;41.740;-88.000;2023-08-06T01:58:34;14;13;
45990;PMS5003;31721;41.740;-88.000;2023-08-06T02:01:02;16;15;
45990;PMS5003;31721;41.740;-88.000;2023-08-06T02:03:30;20;17;
45990;PMS5003;31721;41.740;-88.000;2023-08-06T02:05:58;11;10;
45990;PMS5003;31721;41.740;-88.000;2023-08-06T02:08:27;9;8;
45990;PMS5003;31721;41.740;-88.000;2023-08-06T02:10:55;15;14;
45990;PMS5003;31721;41.740;-88.000;2023-08-06T02:13:23;14;13;
45990;PMS5003;31721;41.740;-88.000;2023-08-06T02:15:51;16;13;
45990;PMS5003;31721;41.740;-88.000;2023-08-06T02:18:19;17;16;
45990;PMS5003;31721;41.740;-88.000;2023-08-06T02:20:54;17;17;
45990;PMS5003;31721;41.740;-88.000;2023-08-06T02:23:22;13;12;
45990;PMS5003;31721;41.740;-88.000;2023-08-06T02:25:56;14;14;
45990;PMS5003;31721;41.740;-88.000;2023-08-06T02:28:25;14;10;
45990;PMS5003;31721;41.740;-88.000;2023-08-06T02:30:52;12;11;
45990;PMS5003;31721;41.740;-88.000;2023-08-06T02:33:20;19;17;
45990;PMS5003;31721;41.740;-88.000;2023-08-06T02:35:49;20;17;
45990;PMS5003;31721;41.740;-88.000;2023-08-06T02:38:18;14;13;
45990;PMS5003;31721;41.740;-88.000;2023-08-06T02:40:46;16;14;
45990;PMS5003;31721;41.740;-88.000;2023-08-06T02:43:14;24;18;
45990;PMS5003;31721;41.740;-88.000;2023-08-06T02:45:41;16;12;
45990;PMS5003;31721;41.740;-88.000;2023-08-06T02:48:09;21;19;
45990;PMS5003;31721;41.740;-88.000;2023-08-06T02:50:38;17;17;
45990;PMS5003;31721;41.740;-88.000;2023-08-06T02:53:06;14;14;
45990;PMS5003;31721;41.740;-88.000;2023-08-06T02:55:35;19;18;
45990;PMS5003;31721;41.740;-88.000;2023-08-06T02:58:04;22;19;
45990;PMS5003;31721;41.740;-88.000;2023-08-06T03:00:31;20;20;
45990;PMS5003;31721;41.740;-88.000;2023-08-06T03:02:59;18;18;
45990;PMS5003;31721;41.740;-88.000;2023-08-06T03:05:27;16;14;
45990;PMS5003;31721;41.740;-88.000;2023-08-06T03:07:55;12;11;
45990;PMS5003;31721;41.740;-88.000;2023-08-06T03:10:23;12;11;
45990;PMS5003;31721;41.740;-88.000;2023-08-06T03:12:51;13;11;
45990;PMS5003;31721;41.740;-88.000;2023-08-06T03:15:19;15;13;
45990;PMS5003;31721;41.740;-88.000;2023-08-06T03:17:48;15;13;
45990;PMS5003;31721;41.740;-88.000;2023-08-06T03:20:16;33;29;
45990;PMS5003;31721;41.740;-88.000;2023-08-06T03:22:44;15;13;
45990;PMS5003;31721;41.740;-88.000;2023-08-06T03:25:12;12;11;
45990;PMS5003;31721;41.740;-88.000;2023-08-06T03:27:41;18;17;
45990;PMS5003;31721;41.740;-88.000;2023-08-06T03:30:09;16;14;
45990;PMS5003;31721;41.740;-88.000;2023-08-06T03:32:37;13;13;
45990;PMS5003;31721;41.740;-88.000;2023-08-06T03:35:05;10;10;
45990;PMS5003;31721;41.740;-88.000;2023-08-06T03:37:34;15;12;
45990;PMS5003;31721;41.740;-88.000;2023-08-06T03:40:02;13;11;
45990;PMS5003;31721;41.740;-88.000;2023-08-06T03:42:30;12;10;
45990;PMS5003;31721;41.740;-88.000;2023-08-06T03:44:59;9;9;
45990;PMS5003;31721;41.740;-88.000;2023-08-06T03:47:27;15;15;
45990;PMS5003;31721;41.740;-88.000;2023-08-06T03:49:54;15;13;
45990;PMS5003;31721;41.740;-88.000;2023-08-06T03:52:22;14;14;
45990;PMS5003;31721;41.740;-88.000;2023-08-06T03:54:50;17;14;
45990;PMS5003;31721;41.740;-88.000;2023-08-06T03:57:18;13;10;
45990;PMS5003;31721;41.740;-88.000;2023-08-06T03:59:46;11;8;
45990;PMS5003;31721;41.740;-88.000;2023-08-06T04:02:14;17;14;
45990;PMS5003;31721;41.740;-88.000;2023-08-06T04:04:42;15;12;
45990;PMS5003;31721;41.740;-88.000;2023-08-06T04:07:10;18;17;
45990;PMS5003;31721;41.740;-88.000;2023-08-06T04:09:52;12;11;
45990;PMS5003;31721;41.740;-88.000;2023-08-06T04:12:21;12;11;
45990;PMS5003;31721;41.740;-88.000;2023-08-06T04:14:50;15;14;
45990;PMS5003;31721;41.740;-88.000;2023-08-06T04:17:18;16;13;
45990;PMS5003;31721;41.740;-88.000;2023-08-06T04:19:46;14;13;
45990;PMS5003;31721;41.740;-88.000;2023-08-06T04:22:14;15;15;
45990;PMS5003;31721;41.740;-88.000;2023-08-06T04:24:42;18;16;
45990;PMS5003;31721;41.740;-88.000;2023-08-06T04:27:11;17;15;
45990;PMS5003;31721;41.740;-88.000;2023-08-06T04:29:39;12;11;
45990;PMS5003;31721;41.740;-88.000;2023-08-06T04:32:08;14;14;
45990;PMS5003;31721;41.740;-88.000;2023-08-06T04:34:36;11;11;
45990;PMS5003;31721;41.740;-88.000;2023-08-06T04:37:05;16;15;
45990;PMS5003;31721;41.740;-88.000;2023-08-06T04:39:32;13;11;
45990;PMS5003;31721;41.740;-88.000;2023-08-06T04:42:00;15;13;
45990;PMS5003;31721;41.740;-88.000;2023-08-06T04:44:28;13;12;
45990;PMS5003;31721;41.740;-88.000;2023-08-06T04:46:55;11;10;
45990;PMS5003;31721;41.740;-88.000;2023-08-06T04:49:24;16;14;
45990;PMS5003;31721;41.740;-88.000;2023-08-06T04:51:52;14;13;
45990;PMS5003;31721;41.740;-88.000;2023-08-06T04:54:20;13;12;
45990;PMS5003;31721;41.740;-88.000;2023-08-06T04:56:48;12;10;
45990;PMS5003;31721;41.740;-88.000;2023-08-06T04:59:15;13;13;
45990;PMS5003;31721;41.740;-88.000;2023-08-06T05:01:44;17;16;
45990;PMS5003;31721;41.740;-88.000;2023-08-06T05:04:12;29;24;
45990;PMS5003;31721;41.740;-88.000;2023-08-06T05:06:40;15;12;
45990;PMS5003;31721;41.740;-88.000;2023-08-06T05:09:08;15;13;
45990;PMS5003;31721;41.740;-88.000;2023-08-06T05:11:36;14;12;
45990;PMS5003;31721;41.740;-88.000;2023-08-06T05:14:04;16;16;
45990;PMS5003;31721;41.740;-88.000;2023-08-06T05:16:31;21;16;
45990;PMS5003;31721;41.740;-88.000;2023-08-06T05:18:59;26;21;
45990;PMS5003;31721;41.740;-88.000;2023-08-06T05:21:27;20;18;
45990;PMS5003;31721;41.740;-88.000;2023-08-06T05:23:55;21;17;
45990;PMS5003;31721;41.740;-88.000;2023-08-06T05:26:22;27;26;
45990;PMS5003;31721;41.740;-88.000;2023-08-06T05:28:50;21;21;
45990;PMS5003;31721;41.740;-88.000;2023-08-06T05:31:18;30;24;
45990;PMS5003;31721;41.740;-88.000;2023-08-06T05:33:46;22;18;
45990;PMS5003;31721;41.740;-88.000;2023-08-06T05:36:14;26;23;
45990;PMS5003;31721;41.740;-88.000;2023-08-06T05:38:41;28;27;
45990;PMS5003;31721;41.740;-88.000;2023-08-06T05:41:09;26;24;
45990;PMS5003;31721;41.740;-88.000;2023-08-06T05:43:37;23;23;
45990;PMS5003;31721;41.740;-88.000;2023-08-06T05:46:05;23;20;
45990;PMS5003;31721;41.740;-88.000;2023-08-06T05:48:33;20;19;
45990;PMS5003;31721;41.740;-88.000;2023-08-06T05:51:00;22;20;
45990;PMS5003;31721;41.740;-88.000;2023-08-06T05:53:29;26;23;
45990;PMS5003;31721;41.740;-88.000;2023-08-06T05:55:56;20;20;
45990;PMS5003;31721;41.740;-88.000;2023-08-06T05:58:24;27;22;
45990;PMS5003;31721;41.740;-88.000;2023-08-06T06:00:52;25;22;
45990;PMS5003;31721;41.740;-88.000;2023-08-06T06:03:20;24;21;
45990;PMS5003;31721;41.740;-88.000;2023-08-06T06:05:48;29;22;
45990;PMS5003;31721;41.740;-88.000;2023-08-06T06:08:15;33;30;
45990;PMS5003;31721;41.740;-88.000;2023-08-06T06:10:43;27;25;
45990;PMS5003;31721;41.740;-88.000;2023-08-06T06:13:11;27;22;
45990;PMS5003;31721;41.740;-88.000;2023-08-06T06:15:39;28;24;
45990;PMS5003;31721;41.740;-88.000;2023-08-06T06:18:06;29;25;
45990;PMS5003;31721;41.740;-88.000;2023-08-06T06:20:34;26;23;
45990;PMS5003;31721;41.740;-88.000;2023-08-06T06:23:01;23;20;
45990;PMS5003;31721;41.740;-88.000;2023-08-06T06:25:29;33;31;
45990;PMS5003;31721;41.740;-88.000;2023-08-06T06:27:57;28;25;
45990;PMS5003;31721;41.740;-88.000;2023-08-06T06:30:24;20;19;
45990;PMS5003;31721;41.740;-88.000;2023-08-06T06:32:52;19;16;
45990;PMS5003;31721;41.740;-88.000;2023-08-06T06:35:20;18;18;
45990;PMS5003;31721;41.740;-88.000;2023-08-06T06:37:48;24;22;
45990;PMS5003;31721;41.740;-88.000;2023-08-06T06:40:16;25;21;
45990;PMS5003;31721;41.740;-88.000;2023-08-06T06:42:43;20;18;
45990;PMS5003;31721;41.740;-88.000;2023-08-06T06:45:11;18;18;
45990;PMS5003;31721;41.740;-88.000;2023-08-06T06:47:39;22;22;
45990;PMS5003;31721;41.740;-88.000;2023-08-06T06:50:07;31;29;
45990;PMS5003;31721;41.740;-88.000;2023-08-06T06:52:36;18;15;
45990;PMS5003;31721;41.740;-88.000;2023-08-06T06:55:04;32;32;
45990;PMS5003;31721;41.740;-88.000;2023-08-06T06:57:33;24;23;
45990;PMS5003;31721;41.740;-88.000;2023-08-06T07:00:00;38;38;
45990;PMS5003;31721;41.740;-88.000;2023-08-06T07:02:29;31;31;
45990;PMS5003;31721;41.740;-88.000;2023-08-06T07:04:56;26;25;
45990;PMS5003;31721;41.740;-88.000;2023-08-06T07:07:24;28;25;
45990;PMS5003;31721;41.740;-88.000;2023-08-06T07:09:51;24;22;
45990;PMS5003;31721;41.740;-88.000;2023-08-06T07:12:19;25;24;
45990;PMS5003;31721;41.740;-88.000;2023-08-06T07:14:47;16;12;
45990;PMS5003;31721;41.740;-88.000;2023-08-06T07:17:15;23;20;
45990;PMS5003;31721;41.740;-88.000;2023-08-06T07:19:43;22;18;
45990;PMS5003;31721;41.740;-88.000;2023-08-06T07:22:10;24;22;
45990;PMS5003;31721;41.740;-88.000;2023-08-06T07:24:38;21;17;
45990;PMS5003;31721;41.740;-88.000;2023-08-06T07:27:06;19;18;
45990;PMS5003;31721;41.740;-88.000;2023-08-06T07:29:34;23;22;
45990;PMS5003;31721;41.740;-88.000;2023-08-06T07:32:01;25;19;
45990;PMS5003;31721;41.740;-88.000;2023-08-06T07:34:29;19;19;
45990;PMS5003;31721;41.740;-88.000;2023-08-06T07:36:57;26;23;
45990;PMS5003;31721;41.740;-88.000;2023-08-06T07:39:25;29;25;
45990;PMS5003;31721;41.740;-88.000;2023-08-06T07:41:53;17;17;
45990;PMS5003;31721;41.740;-88.000;2023-08-06T07:44:21;23;20;
45990;PMS5003;31721;41.740;-88.000;2023-08-06T07:46:49;24;19;
45990;PMS5003;31721;41.740;-88.000;2023-08-06T07:49:17;30;26;
45990;PMS5003;31721;41.740;-88.000;2023-08-06T07:51:45;29;28;
45990;PMS5003;31721;41.740;-88.000;2023-08-06T07:54:12;18;15;
45990;PMS5003;31721;41.740;-88.000;2023-08-06T07:56:40;38;30;
45990;PMS5003;31721;41.740;-88.000;2023-08-06T07:59:08;21;20;
45990;PMS5003;31721;41.740;-88.000;2023-08-06T08:01:36;24;21;
45990;PMS5003;31721;41.740;-88.000;2023-08-06T08:04:04;19;18;
45990;PMS5003;31721;41.740;-88.000;2023-08-06T08:06:33;22;19;
45990;PMS5003;31721;41.740;-88.000;2023-08-06T08:09:00;24;19;
45990;PMS5003;31721;41.740;-88.000;2023-08-06T08:11:28;26;22;
45990;PMS5003;31721;41.740;-88.000;2023-08-06T08:13:55;20;15;
45990;PMS5003;31721;41.740;-88.000;2023-08-06T08:16:24;25;23;
45990;PMS5003;31721;41.740;-88.000;2023-08-06T08:18:51;21;20;
45990;PMS5003;31721;41.740;-88.000;2023-08-06T08:21:19;22;18;
45990;PMS5003;31721;41.740;-88.000;2023-08-06T08:23:47;23;19;
45990;PMS5003;31721;41.740;-88.000;2023-08-06T08:26:14;21;19;
45990;PMS5003;31721;41.740;-88.000;2023-08-06T08:28:42;14;13;
45990;PMS5003;31721;41.740;-88.000;2023-08-06T08:31:10;17;17;
45990;PMS5003;31721;41.740;-88.000;2023-08-06T08:33:38;13;13;
45990;PMS5003;31721;41.740;-88.000;2023-08-06T08:36:06;15;12;
45990;PMS5003;31721;41.740;-88.000;2023-08-06T08:38:34;10;9;
45990;PMS5003;31721;41.740;-88.000;2023-08-06T08:41:01;15;13;
45990;PMS5003;31721;41.740;-88.000;2023-08-06T08:43:29;14;11;
45990;PMS5003;31721;41.740;-88.000;2023-08-06T08:45:57;20;20;
45990;PMS5003;31721;41.740;-88.000;2023-08-06T08:48:28;12;8;
45990;PMS5003;31721;41.740;-88.000;2023-08-06T08:50:56;10;9;
45990;PMS5003;31721;41.740;-88.000;2023-08-06T08:53:24;17;14;
45990;PMS5003;31721;41.740;-88.000;2023-08-06T08:55:53;10;10;
45990;PMS5003;31721;41.740;-88.000;2023-08-06T08:58:21;11;7;
45990;PMS5003;31721;41.740;-88.000;2023-08-06T09:00:49;8;8;
45990;PMS5003;31721;41.740;-88.000;2023-08-06T09:03:18;8;8;
45990;PMS5003;31721;41.740;-88.000;2023-08-06T09:05:46;12;11;
45990;PMS5003;31721;41.740;-88.000;2023-08-06T09:08:21;10;10;
45990;PMS5003;31721;41.740;-88.000;2023-08-06T09:10:54;9;8;
45990;PMS5003;31721;41.740;-88.000;2023-08-06T09:13:22;10;10;
45990;PMS5003;31721;41.740;-88.000;2023-08-06T09:15:50;14;12;
45990;PMS5003;31721;41.740;-88.000;2023-08-06T09:18:25;11;9;
45990;PMS5003;31721;41.740;-88.000;2023-08-06T09:20:52;10;9;
45990;PMS5003;31721;41.740;-88.000;2023-08-06T09:23:20;6;6;
45990;PMS5003;31721;41.740;-88.000;2023-08-06T09:25:55;8;8;
45990;PMS5003;31721;41.740;-88.000;2023-08-06T09:28:23;14;11;
45990;PMS5003;31721;41.740;-88.000;2023-08-06T09:30:52;10;9;
45990;PMS5003;31721;41.740;-88.000;2023-08-06T09:33:19;11;10;
45990;PMS5003;31721;41.740;-88.000;2023-08-06T09:35:49;16;15;
45990;PMS5003;31721;41.740;-88.000;2023-08-06T09:38:16;13;10;
45990;PMS5003;31721;41.740;-88.000;2023-08-06T09:40:44;12;12;
45990;PMS5003;31721;41.740;-88.000;2023-08-06T09:43:12;12;11;
45990;PMS5003;31721;41.740;-88.000;2023-08-06T09:45:39;10;9;
45990;PMS5003;31721;41.740;-88.000;2023-08-06T09:48:08;15;13;
45990;PMS5003;31721;41.740;-88.000;2023-08-06T09:50:36;17;16;
45990;PMS5003;31721;41.740;-88.000;2023-08-06T09:53:05;13;11;
45990;PMS5003;31721;41.740;-88.000;2023-08-06T09:55:33;13;12;
45990;PMS5003;31721;41.740;-88.000;2023-08-06T09:58:01;13;10;
45990;PMS5003;31721;41.740;-88.000;2023-08-06T10:00:29;13;12;
45990;PMS5003;31721;41.740;-88.000;2023-08-06T10:02:59;14;14;
45990;PMS5003;31721;41.740;-88.000;2023-08-06T10:05:27;11;11;
45990;PMS5003;31721;41.740;-88.000;2023-08-06T10:07:58;17;16;
45990;PMS5003;31721;41.740;-88.000;2023-08-06T10:10:29;20;19;
45990;PMS5003;31721;41.740;-88.000;2023-08-06T10:12:58;21;14;
45990;PMS5003;31721;41.740;-88.000;2023-08-06T10:15:28;19;14;
45990;PMS5003;31721;41.740;-88.000;2023-08-06T10:17:59;18;16;
45990;PMS5003;31721;41.740;-88.000;2023-08-06T10:20:32;19;16;
45990;PMS5003;31721;41.740;-88.000;2023-08-06T10:23:01;18;15;
45990;PMS5003;31721;41.740;-88.000;2023-08-06T10:25:31;21;20;
45990;PMS5003;31721;41.740;-88.000;2023-08-06T10:27:59;24;24;
45990;PMS5003;31721;41.740;-88.000;2023-08-06T10:30:33;18;15;
45990;PMS5003;31721;41.740;-88.000;2023-08-06T10:33:07;20;19;
45990;PMS5003;31721;41.740;-88.000;2023-08-06T10:35:36;24;21;
45990;PMS5003;31721;41.740;-88.000;2023-08-06T10:38:05;23;19;
45990;PMS5003;31721;41.740;-88.000;2023-08-06T10:40:35;19;17;
45990;PMS5003;31721;41.740;-88.000;2023-08-06T10:43:04;20;19;
45990;PMS5003;31721;41.740;-88.000;2023-08-06T10:45:34;21;21;
45990;PMS5003;31721;41.740;-88.000;2023-08-06T10:48:02;19;18;
45990;PMS5003;31721;41.740;-88.000;2023-08-06T10:50:31;27;23;
45990;PMS5003;31721;41.740;-88.000;2023-08-06T10:53:03;25;24;
45990;PMS5003;31721;41.740;-88.000;2023-08-06T10:55:31;24;21;
45990;PMS5003;31721;41.740;-88.000;2023-08-06T10:57:59;19;18;
45990;PMS5003;31721;41.740;-88.000;2023-08-06T11:00:27;22;20;
45990;PMS5003;31721;41.740;-88.000;2023-08-06T11:02:54;30;26;
45990;PMS5003;31721;41.740;-88.000;2023-08-06T11:05:22;21;18;
45990;PMS5003;31721;41.740;-88.000;2023-08-06T11:07:50;31;26;
45990;PMS5003;31721;41.740;-88.000;2023-08-06T11:10:18;31;30;
45990;PMS5003;31721;41.740;-88.000;2023-08-06T11:12:45;22;19;
45990;PMS5003;31721;41.740;-88.000;2023-08-06T11:15:13;30;27;
45990;PMS5003;31721;41.740;-88.000;2023-08-06T11:17:41;25;25;
45990;PMS5003;31721;41.740;-88.000;2023-08-06T11:20:09;29;28;
45990;PMS5003;31721;41.740;-88.000;2023-08-06T11:22:37;24;24;
45990;PMS5003;31721;41.740;-88.000;2023-08-06T11:25:06;25;23;
45990;PMS5003;31721;41.740;-88.000;2023-08-06T11:27:34;32;23;
45990;PMS5003;31721;41.740;-88.000;2023-08-06T11:30:02;20;18;
45990;PMS5003;31721;41.740;-88.000;2023-08-06T11:32:29;34;29;
45990;PMS5003;31721;41.740;-88.000;2023-08-06T11:34:57;22;22;
45990;PMS5003;31721;41.740;-88.000;2023-08-06T11:37:25;29;26;
45990;PMS5003;31721;41.740;-88.000;2023-08-06T11:39:53;24;24;
45990;PMS5003;31721;41.740;-88.000;2023-08-06T11:42:20;27;26;
45990;PMS5003;31721;41.740;-88.000;2023-08-06T11:44:49;20;18;
45990;PMS5003;31721;41.740;-88.000;2023-08-06T11:47:17;25;23;
45990;PMS5003;31721;41.740;-88.000;2023-08-06T11:49:45;34;28;
45990;PMS5003;31721;41.740;-88.000;2023-08-06T11:52:15;37;35;
45990;PMS5003;31721;41.740;-88.000;2023-08-06T11:54:44;25;24;
45990;PMS5003;31721;41.740;-88.000;2023-08-06T11:57:12;30;24;
45990;PMS5003;31721;41.740;-88.000;2023-08-06T11:59:41;24;20;
45990;PMS5003;31721;41.740;-88.000;2023-08-06T12:02:09;22;20;
45990;PMS5003;31721;41.740;-88.000;2023-08-06T12:05:10;20;19;
45990;PMS5003;31721;41.740;-88.000;2023-08-06T12:07:40;21;20;
45990;PMS5003;31721;41.740;-88.000;2023-08-06T12:10:08;31;27;
45990;PMS5003;31721;41.740;-88.000;2023-08-06T12:12:37;17;17;
45990;PMS5003;31721;41.740;-88.000;2023-08-06T12:15:06;26;23;
45990;PMS5003;31721;41.740;-88.000;2023-08-06T12:17:35;30;24;
45990;PMS5003;31721;41.740;-88.000;2023-08-06T12:20:04;23;22;
45990;PMS5003;31721;41.740;-88.000;2023-08-06T12:22:33;18;15;
45990;PMS5003;31721;41.740;-88.000;2023-08-06T12:25:01;19;19;
45990;PMS5003;31721;41.740;-88.000;2023-08-06T12:27:31;19;16;
45990;PMS5003;31721;41.740;-88.000;2023-08-06T12:29:59;21;18;
45990;PMS5003;31721;41.740;-88.000;2023-08-06T12:32:27;24;22;
45990;PMS5003;31721;41.740;-88.000;2023-08-06T12:34:54;12;12;
45990;PMS5003;31721;41.740;-88.000;2023-08-06T12:37:22;25;22;
45990;PMS5003;31721;41.740;-88.000;2023-08-06T12:39:50;16;13;
45990;PMS5003;31721;41.740;-88.000;2023-08-06T12:42:18;20;17;
45990;PMS5003;31721;41.740;-88.000;2023-08-06T12:44:48;23;18;
45990;PMS5003;31721;41.740;-88.000;2023-08-06T12:47:16;18;18;
45990;PMS5003;31721;41.740;-88.000;2023-08-06T12:49:44;18;15;
45990;PMS5003;31721;41.740;-88.000;2023-08-06T12:52:12;19;17;
45990;PMS5003;31721;41.740;-88.000;2023-08-06T12:54:40;25;22;
45990;PMS5003;31721;41.740;-88.000;2023-08-06T12:57:08;16;15;
45990;PMS5003;31721;41.740;-88.000;2023-08-06T12:59:36;21;20;
45990;PMS5003;31721;41.740;-88.000;2023-08-06T13:02:04;20;17;
45990;PMS5003;31721;41.740;-88.000;2023-08-06T13:04:31;17;16;
45990;PMS5003;31721;41.740;-88.000;2023-08-06T13:06:59;20;18;
45990;PMS5003;31721;41.740;-88.000;2023-08-06T13:09:26;16;16;
45990;PMS5003;31721;41.740;-88.000;2023-08-06T13:11:54;16;15;
45990;PMS5003;31721;41.740;-88.000;2023-08-06T13:14:22;16;15;
45990;PMS5003;31721;41.740;-88.000;2023-08-06T13:16:50;19;16;
45990;PMS5003;31721;41.740;-88.000;2023-08-06T13:19:17;27;24;
45990;PMS5003;31721;41.740;-88.000;2023-08-06T13:22:01;20;18;
45990;PMS5003;31721;41.740;-88.000;2023-08-06T13:24:30;20;16;
45990;PMS5003;31721;41.740;-88.000;2023-08-06T13:26:58;15;11;
45990;PMS5003;31721;41.740;-88.000;2023-08-06T13:29:27;19;14;
45990;PMS5003;31721;41.740;-88.000;2023-08-06T13:31:54;23;17;
45990;PMS5003;31721;41.740;-88.000;2023-08-06T13:34:22;14;14;
45990;PMS5003;31721;41.740;-88.000;2023-08-06T13:36:49;19;18;
45990;PMS5003;31721;41.740;-88.000;2023-08-06T13:39:17;17;15;
45990;PMS5003;31721;41.740;-88.000;2023-08-06T13:41:45;17;13;
45990;PMS5003;31721;41.740;-88.000;2023-08-06T13:44:12;20;16;
45990;PMS5003;31721;41.740;-88.000;2023-08-06T13:46:40;20;20;
45990;PMS5003;31721;41.740;-88.000;2023-08-06T13:49:08;15;14;
45990;PMS5003;31721;41.740;-88.000;2023-08-06T13:51:36;20;20;
45990;PMS5003;31721;41.740;-88.000;2023-08-06T13:54:04;18;15;
45990;PMS5003;31721;41.740;-88.000;2023-08-06T13:56:32;16;14;
45990;PMS5003;31721;41.740;-88.000;2023-08-06T13:59:12;13;10;
45990;PMS5003;31721;41.740;-88.000;2023-08-06T14:01:40;16;16;
45990;PMS5003;31721;41.740;-88.000;2023-08-06T14:04:08;20;18;
45990;PMS5003;31721;41.740;-88.000;2023-08-06T14:06:36;19;18;
45990;PMS5003;31721;41.740;-88.000;2023-08-06T14:09:04;12;11;
45990;PMS5003;31721;41.740;-88.000;2023-08-06T14:11:32;17;13;
45990;PMS5003;31721;41.740;-88.000;2023-08-06T14:13:59;15;13;
45990;PMS5003;31721;41.740;-88.000;2023-08-06T14:16:27;20;16;
45990;PMS5003;31721;41.740;-88.000;2023-08-06T14:18:54;17;14;
45990;PMS5003;31721;41.740;-88.000;2023-08-06T14:21:22;18;16;
45990;PMS5003;31721;41.740;-88.000;2023-08-06T14:23:49;12;12;
45990;PMS5003;31721;41.740;-88.000;2023-08-06T14:26:17;20;17;
45990;PMS5003;31721;41.740;-88.000;2023-08-06T14:28:45;20;14;
45990;PMS5003;31721;41.740;-88.000;2023-08-06T14:31:13;20;17;
45990;PMS5003;31721;41.740;-88.000;2023-08-06T14:33:41;16;13;
45990;PMS5003;31721;41.740;-88.000;2023-08-06T14:36:09;19;18;
45990;PMS5003;31721;41.740;-88.000;2023-08-06T14:38:36;20;20;
45990;PMS5003;31721;41.740;-88.000;2023-08-06T14:41:04;19;17;
45990;PMS5003;31721;41.740;-88.000;2023-08-06T14:43:32;14;14;
45990;PMS5003;31721;41.740;-88.000;2023-08-06T14:46:01;19;14;
45990;PMS5003;31721;41.740;-88.000;2023-08-06T14:48:28;23;20;
45990;PMS5003;31721;41.740;-88.000;2023-08-06T14:50:57;20;16;
45990;PMS5003;31721;41.740;-88.000;2023-08-06T14:53:25;18;13;
45990;PMS5003;31721;41.740;-88.000;2023-08-06T14:55:52;16;14;
45990;PMS5003;31721;41.740;-88.000;2023-08-06T14:58:21;24;22;
45990;PMS5003;31721;41.740;-88.000;2023-08-06T15:00:49;17;14;
45990;PMS5003;31721;41.740;-88.000;2023-08-06T15:03:17;18;16;
45990;PMS5003;31721;41.740;-88.000;2023-08-06T15:05:46;19;16;
45990;PMS5003;31721;41.740;-88.000;2023-08-06T15:08:14;21;19;
45990;PMS5003;31721;41.740;-88.000;2023-08-06T15:10:49;15;15;
45990;PMS5003;31721;41.740;-88.000;2023-08-06T15:13:17;15;15;
45990;PMS5003;31721;41.740;-88.000;2023-08-06T15:15:46;21;21;
45990;PMS5003;31721;41.740;-88.000;2023-08-06T15:18:14;20;18;
45990;PMS5003;31721;41.740;-88.000;2023-08-06T15:20:43;25;24;
45990;PMS5003;31721;41.740;-88.000;2023-08-06T15:23:10;20;19;
45990;PMS5003;31721;41.740;-88.000;2023-08-06T15:25:38;23;21;
45990;PMS5003;31721;41.740;-88.000;2023-08-06T15:28:06;20;19;
45990;PMS5003;31721;41.740;-88.000;2023-08-06T15:30:34;25;21;
45990;PMS5003;31721;41.740;-88.000;2023-08-06T15:33:02;18;16;
45990;PMS5003;31721;41.740;-88.000;2023-08-06T15:35:29;20;18;
45990;PMS5003;31721;41.740;-88.000;2023-08-06T15:37:57;17;17;
45990;PMS5003;31721;41.740;-88.000;2023-08-06T15:40:25;21;19;
45990;PMS5003;31721;41.740;-88.000;2023-08-06T15:42:53;21;18;
45990;PMS5003;31721;41.740;-88.000;2023-08-06T15:45:21;24;20;
45990;PMS5003;31721;41.740;-88.000;2023-08-06T15:47:49;16;15;
45990;PMS5003;31721;41.740;-88.000;2023-08-06T15:50:17;20;19;
45990;PMS5003;31721;41.740;-88.000;2023-08-06T15:52:45;22;15;
45990;PMS5003;31721;41.740;-88.000;2023-08-06T15:55:13;24;21;